sensor_id;sensor_type;location;lat;lon;timestamp;P1;durP1;ratioP1;P2;durP2;ratioP2
42334;SDS011;27986;42.700;24.178;2022-12-07T00:01:35;24.02;;;8.45;;
42334;SDS011;27986;42.700;24.178;2022-12-07T00:04:06;18.92;;;6.50;;
42334;SDS011;27986;42.700;24.178;2022-12-07T00:06:36;21.55;;;8.60;;
42334;SDS011;27986;42.700;24.178;2022-12-07T00:09:03;23.15;;;8.70;;
42334;SDS011;27986;42.700;24.178;2022-12-07T00:11:30;24.58;;;8.82;;
42334;SDS011;27986;42.700;24.178;2022-12-07T00:13:57;21.67;;;10.48;;
42334;SDS011;27986;42.700;24.178;2022-12-07T00:16:26;23.27;;;9.48;;
42334;SDS011;27986;42.700;24.178;2022-12-07T00:18:56;22.00;;;10.68;;
42334;SDS011;27986;42.700;24.178;2022-12-07T00:21:23;23.38;;;10.07;;
42334;SDS011;27986;42.700;24.178;2022-12-07T00:23:51;29.92;;;10.98;;
42334;SDS011;27986;42.700;24.178;2022-12-07T00:26:26;24.95;;;9.98;;
42334;SDS011;27986;42.700;24.178;2022-12-07T00:28:57;22.17;;;7.80;;
42334;SDS011;27986;42.700;24.178;2022-12-07T00:31:26;30.05;;;12.20;;
42334;SDS011;27986;42.700;24.178;2022-12-07T00:33:54;24.58;;;10.55;;
42334;SDS011;27986;42.700;24.178;2022-12-07T00:36:22;42.08;;;11.88;;
42334;SDS011;27986;42.700;24.178;2022-12-07T00:38:48;19.90;;;6.95;;
42334;SDS011;27986;42.700;24.178;2022-12-07T00:41:15;38.85;;;8.35;;
42334;SDS011;27986;42.700;24.178;2022-12-07T00:43:45;13.30;;;6.75;;
42334;SDS011;27986;42.700;24.178;2022-12-07T00:46:12;14.90;;;5.63;;
42334;SDS011;27986;42.700;24.178;2022-12-07T00:48:38;10.05;;;5.13;;
42334;SDS011;27986;42.700;24.178;2022-12-07T00:51:04;14.52;;;5.28;;
42334;SDS011;27986;42.700;24.178;2022-12-07T00:53:31;9.80;;;3.45;;
42334;SDS011;27986;42.700;24.178;2022-12-07T00:56:04;11.43;;;4.57;;
42334;SDS011;27986;42.700;24.178;2022-12-07T00:58:33;11.50;;;4.30;;
42334;SDS011;27986;42.700;24.178;2022-12-07T01:01:02;9.65;;;4.72;;
42334;SDS011;27986;42.700;24.178;2022-12-07T01:03:28;10.00;;;4.60;;
42334;SDS011;27986;42.700;24.178;2022-12-07T01:05:54;13.13;;;5.70;;
42334;SDS011;27986;42.700;24.178;2022-12-07T01:08:22;11.45;;;3.85;;
42334;SDS011;27986;42.700;24.178;2022-12-07T01:10:48;5.43;;;2.67;;
42334;SDS011;27986;42.700;24.178;2022-12-07T01:13:14;9.23;;;3.78;;
42334;SDS011;27986;42.700;24.178;2022-12-07T01:15:41;8.35;;;3.80;;
42334;SDS011;27986;42.700;24.178;2022-12-07T01:18:07;8.40;;;3.42;;
42334;SDS011;27986;42.700;24.178;2022-12-07T01:20:33;8.93;;;3.45;;
42334;SDS011;27986;42.700;24.178;2022-12-07T01:22:58;14.25;;;2.97;;
42334;SDS011;27986;42.700;24.178;2022-12-07T01:25:24;6.97;;;2.95;;
42334;SDS011;27986;42.700;24.178;2022-12-07T01:27:49;9.98;;;4.30;;
42334;SDS011;27986;42.700;24.178;2022-12-07T01:30:14;9.30;;;3.03;;
42334;SDS011;27986;42.700;24.178;2022-12-07T01:32:40;7.80;;;3.63;;
42334;SDS011;27986;42.700;24.178;2022-12-07T01:35:05;10.75;;;3.22;;
42334;SDS011;27986;42.700;24.178;2022-12-07T01:37:35;10.90;;;4.70;;
42334;SDS011;27986;42.700;24.178;2022-12-07T01:40:02;15.63;;;5.38;;
42334;SDS011;27986;42.700;24.178;2022-12-07T01:42:28;11.77;;;5.47;;
42334;SDS011;27986;42.700;24.178;2022-12-07T01:47:57;8.20;;;3.88;;
42334;SDS011;27986;42.700;24.178;2022-12-07T01:50:24;8.88;;;4.10;;
42334;SDS011;27986;42.700;24.178;2022-12-07T01:52:53;10.40;;;3.75;;
42334;SDS011;27986;42.700;24.178;2022-12-07T01:55:21;10.15;;;3.95;;
42334;SDS011;27986;42.700;24.178;2022-12-07T01:57:49;8.25;;;3.35;;
42334;SDS011;27986;42.700;24.178;2022-12-07T02:00:17;17.77;;;6.00;;
42334;SDS011;27986;42.700;24.178;2022-12-07T02:05:25;17.20;;;7.03;;
42334;SDS011;27986;42.700;24.178;2022-12-07T02:07:52;14.52;;;6.13;;
42334;SDS011;27986;42.700;24.178;2022-12-07T02:10:21;16.55;;;6.38;;
42334;SDS011;27986;42.700;24.178;2022-12-07T02:12:50;15.73;;;6.22;;
42334;SDS011;27986;42.700;24.178;2022-12-07T02:15:20;10.60;;;5.13;;
42334;SDS011;27986;42.700;24.178;2022-12-07T02:28:31;10.23;;;4.10;;
42334;SDS011;27986;42.700;24.178;2022-12-07T02:30:58;9.70;;;4.07;;
42334;SDS011;27986;42.700;24.178;2022-12-07T02:33:44;11.65;;;4.85;;
42334;SDS011;27986;42.700;24.178;2022-12-07T02:36:19;14.07;;;4.38;;
42334;SDS011;27986;42.700;24.178;2022-12-07T02:41:40;11.60;;;4.30;;
42334;SDS011;27986;42.700;24.178;2022-12-07T02:44:18;6.68;;;3.47;;
42334;SDS011;27986;42.700;24.178;2022-12-07T02:46:59;7.32;;;3.60;;
42334;SDS011;27986;42.700;24.178;2022-12-07T02:49:29;10.40;;;4.80;;
42334;SDS011;27986;42.700;24.178;2022-12-07T02:51:55;10.88;;;5.07;;
42334;SDS011;27986;42.700;24.178;2022-12-07T02:54:21;9.40;;;4.20;;
42334;SDS011;27986;42.700;24.178;2022-12-07T02:56:48;12.32;;;5.75;;
42334;SDS011;27986;42.700;24.178;2022-12-07T03:07:59;10.43;;;3.70;;
42334;SDS011;27986;42.700;24.178;2022-12-07T03:16:23;11.80;;;3.92;;
42334;SDS011;27986;42.700;24.178;2022-12-07T03:18:57;9.45;;;3.03;;
42334;SDS011;27986;42.700;24.178;2022-12-07T03:21:42;9.23;;;3.75;;
42334;SDS011;27986;42.700;24.178;2022-12-07T03:24:15;8.38;;;4.05;;
42334;SDS011;27986;42.700;24.178;2022-12-07T03:26:46;13.25;;;4.75;;
42334;SDS011;27986;42.700;24.178;2022-12-07T03:29:17;12.23;;;4.50;;
42334;SDS011;27986;42.700;24.178;2022-12-07T03:31:58;12.48;;;5.22;;
42334;SDS011;27986;42.700;24.178;2022-12-07T03:37:07;11.40;;;4.25;;
42334;SDS011;27986;42.700;24.178;2022-12-07T03:42:35;12.80;;;5.20;;
42334;SDS011;27986;42.700;24.178;2022-12-07T03:45:01;17.42;;;8.05;;
42334;SDS011;27986;42.700;24.178;2022-12-07T03:50:07;15.95;;;5.60;;
42334;SDS011;27986;42.700;24.178;2022-12-07T03:52:44;14.90;;;4.43;;
42334;SDS011;27986;42.700;24.178;2022-12-07T03:55:20;9.82;;;3.90;;
42334;SDS011;27986;42.700;24.178;2022-12-07T03:57:53;14.05;;;5.35;;
42334;SDS011;27986;42.700;24.178;2022-12-07T04:00:25;14.60;;;5.38;;
42334;SDS011;27986;42.700;24.178;2022-12-07T04:02:52;10.18;;;4.10;;
42334;SDS011;27986;42.700;24.178;2022-12-07T04:05:18;10.65;;;3.67;;
42334;SDS011;27986;42.700;24.178;2022-12-07T04:07:44;8.02;;;3.42;;
42334;SDS011;27986;42.700;24.178;2022-12-07T04:10:10;10.93;;;3.83;;
42334;SDS011;27986;42.700;24.178;2022-12-07T04:12:36;7.03;;;2.55;;
42334;SDS011;27986;42.700;24.178;2022-12-07T04:15:02;12.98;;;4.55;;
42334;SDS011;27986;42.700;24.178;2022-12-07T04:17:28;12.68;;;5.72;;
42334;SDS011;27986;42.700;24.178;2022-12-07T04:19:54;14.25;;;6.10;;
42334;SDS011;27986;42.700;24.178;2022-12-07T04:22:19;19.63;;;7.68;;
42334;SDS011;27986;42.700;24.178;2022-12-07T04:24:45;14.18;;;7.22;;
42334;SDS011;27986;42.700;24.178;2022-12-07T04:27:10;12.07;;;4.78;;
42334;SDS011;27986;42.700;24.178;2022-12-07T04:29:36;11.55;;;5.32;;
42334;SDS011;27986;42.700;24.178;2022-12-07T04:32:01;14.77;;;7.43;;
42334;SDS011;27986;42.700;24.178;2022-12-07T04:34:27;20.95;;;9.27;;
42334;SDS011;27986;42.700;24.178;2022-12-07T04:36:52;13.35;;;7.00;;
42334;SDS011;27986;42.700;24.178;2022-12-07T04:39:22;14.90;;;6.43;;
42334;SDS011;27986;42.700;24.178;2022-12-07T04:41:49;15.88;;;5.93;;
42334;SDS011;27986;42.700;24.178;2022-12-07T04:44:15;17.58;;;7.05;;
42334;SDS011;27986;42.700;24.178;2022-12-07T04:46:42;18.88;;;7.07;;
42334;SDS011;27986;42.700;24.178;2022-12-07T04:49:08;25.30;;;8.23;;
42334;SDS011;27986;42.700;24.178;2022-12-07T04:51:34;20.50;;;8.05;;
42334;SDS011;27986;42.700;24.178;2022-12-07T04:53:59;16.02;;;6.47;;
42334;SDS011;27986;42.700;24.178;2022-12-07T04:56:25;18.75;;;7.88;;
42334;SDS011;27986;42.700;24.178;2022-12-07T04:58:51;24.35;;;9.68;;
42334;SDS011;27986;42.700;24.178;2022-12-07T05:01:17;22.48;;;9.68;;
42334;SDS011;27986;42.700;24.178;2022-12-07T05:03:43;22.90;;;8.70;;
42334;SDS011;27986;42.700;24.178;2022-12-07T05:06:09;25.02;;;10.23;;
42334;SDS011;27986;42.700;24.178;2022-12-07T05:08:35;18.08;;;6.72;;
42334;SDS011;27986;42.700;24.178;2022-12-07T05:11:02;22.25;;;7.95;;
42334;SDS011;27986;42.700;24.178;2022-12-07T05:13:28;18.45;;;6.40;;
42334;SDS011;27986;42.700;24.178;2022-12-07T05:15:54;19.42;;;8.35;;
42334;SDS011;27986;42.700;24.178;2022-12-07T05:18:19;21.73;;;7.50;;
42334;SDS011;27986;42.700;24.178;2022-12-07T05:20:45;16.52;;;5.82;;
42334;SDS011;27986;42.700;24.178;2022-12-07T05:23:11;9.80;;;5.40;;
42334;SDS011;27986;42.700;24.178;2022-12-07T05:25:37;12.00;;;5.18;;
42334;SDS011;27986;42.700;24.178;2022-12-07T05:28:03;23.60;;;9.55;;
42334;SDS011;27986;42.700;24.178;2022-12-07T05:30:29;26.77;;;10.73;;
42334;SDS011;27986;42.700;24.178;2022-12-07T05:32:54;36.13;;;12.85;;
42334;SDS011;27986;42.700;24.178;2022-12-07T05:35:20;18.33;;;6.68;;
42334;SDS011;27986;42.700;24.178;2022-12-07T05:37:45;15.07;;;5.35;;
42334;SDS011;27986;42.700;24.178;2022-12-07T05:40:11;17.45;;;6.00;;
42334;SDS011;27986;42.700;24.178;2022-12-07T05:42:39;18.52;;;6.22;;
42334;SDS011;27986;42.700;24.178;2022-12-07T05:45:04;19.70;;;9.75;;
42334;SDS011;27986;42.700;24.178;2022-12-07T05:47:31;30.48;;;9.20;;
42334;SDS011;27986;42.700;24.178;2022-12-07T05:49:56;30.52;;;11.20;;
42334;SDS011;27986;42.700;24.178;2022-12-07T05:52:22;20.75;;;7.68;;
42334;SDS011;27986;42.700;24.178;2022-12-07T05:54:47;30.73;;;10.38;;
42334;SDS011;27986;42.700;24.178;2022-12-07T05:57:13;19.05;;;8.13;;
42334;SDS011;27986;42.700;24.178;2022-12-07T05:59:38;23.38;;;8.77;;
42334;SDS011;27986;42.700;24.178;2022-12-07T06:02:05;26.25;;;9.95;;
42334;SDS011;27986;42.700;24.178;2022-12-07T06:04:34;20.42;;;7.80;;
42334;SDS011;27986;42.700;24.178;2022-12-07T06:07:07;21.95;;;7.63;;
42334;SDS011;27986;42.700;24.178;2022-12-07T06:09:33;30.88;;;7.47;;
42334;SDS011;27986;42.700;24.178;2022-12-07T06:11:59;29.95;;;13.25;;
42334;SDS011;27986;42.700;24.178;2022-12-07T06:14:44;72.38;;;28.17;;
42334;SDS011;27986;42.700;24.178;2022-12-07T06:17:10;29.63;;;11.10;;
42334;SDS011;27986;42.700;24.178;2022-12-07T06:19:37;41.95;;;16.85;;
42334;SDS011;27986;42.700;24.178;2022-12-07T06:22:03;55.20;;;22.92;;
42334;SDS011;27986;42.700;24.178;2022-12-07T06:24:29;26.77;;;12.82;;
42334;SDS011;27986;42.700;24.178;2022-12-07T06:26:56;31.27;;;13.75;;
42334;SDS011;27986;42.700;24.178;2022-12-07T06:29:21;29.45;;;12.65;;
42334;SDS011;27986;42.700;24.178;2022-12-07T06:31:47;17.85;;;7.18;;
42334;SDS011;27986;42.700;24.178;2022-12-07T06:34:13;15.93;;;8.07;;
42334;SDS011;27986;42.700;24.178;2022-12-07T06:36:41;49.75;;;21.27;;
42334;SDS011;27986;42.700;24.178;2022-12-07T06:39:06;25.67;;;11.55;;
42334;SDS011;27986;42.700;24.178;2022-12-07T06:41:34;16.70;;;7.03;;
42334;SDS011;27986;42.700;24.178;2022-12-07T06:44:02;20.85;;;7.97;;
42334;SDS011;27986;42.700;24.178;2022-12-07T06:46:28;19.50;;;7.95;;
42334;SDS011;27986;42.700;24.178;2022-12-07T06:48:53;23.70;;;7.32;;
42334;SDS011;27986;42.700;24.178;2022-12-07T06:51:19;24.77;;;9.20;;
42334;SDS011;27986;42.700;24.178;2022-12-07T06:53:44;25.65;;;11.63;;
42334;SDS011;27986;42.700;24.178;2022-12-07T06:56:09;29.90;;;11.23;;
42334;SDS011;27986;42.700;24.178;2022-12-07T06:58:35;33.65;;;13.63;;
42334;SDS011;27986;42.700;24.178;2022-12-07T07:01:00;35.83;;;13.35;;
42334;SDS011;27986;42.700;24.178;2022-12-07T07:03:26;26.35;;;10.73;;
42334;SDS011;27986;42.700;24.178;2022-12-07T07:05:51;19.35;;;6.95;;
42334;SDS011;27986;42.700;24.178;2022-12-07T07:08:17;16.40;;;7.03;;
42334;SDS011;27986;42.700;24.178;2022-12-07T07:10:42;14.25;;;6.43;;
42334;SDS011;27986;42.700;24.178;2022-12-07T07:13:08;15.75;;;7.07;;
42334;SDS011;27986;42.700;24.178;2022-12-07T07:15:34;15.77;;;7.85;;
42334;SDS011;27986;42.700;24.178;2022-12-07T07:18:02;14.90;;;7.70;;
42334;SDS011;27986;42.700;24.178;2022-12-07T07:20:28;17.83;;;8.75;;
42334;SDS011;27986;42.700;24.178;2022-12-07T07:22:54;23.38;;;6.93;;
42334;SDS011;27986;42.700;24.178;2022-12-07T07:25:20;14.15;;;5.68;;
42334;SDS011;27986;42.700;24.178;2022-12-07T07:27:46;18.42;;;7.35;;
42334;SDS011;27986;42.700;24.178;2022-12-07T07:30:11;20.00;;;5.75;;
42334;SDS011;27986;42.700;24.178;2022-12-07T07:32:37;16.38;;;5.10;;
42334;SDS011;27986;42.700;24.178;2022-12-07T07:35:03;11.40;;;5.00;;
42334;SDS011;27986;42.700;24.178;2022-12-07T07:37:28;16.60;;;5.00;;
42334;SDS011;27986;42.700;24.178;2022-12-07T07:39:54;16.83;;;4.63;;
42334;SDS011;27986;42.700;24.178;2022-12-07T07:42:19;10.98;;;5.72;;
42334;SDS011;27986;42.700;24.178;2022-12-07T07:44:45;15.02;;;7.00;;
42334;SDS011;27986;42.700;24.178;2022-12-07T07:47:10;16.75;;;6.30;;
42334;SDS011;27986;42.700;24.178;2022-12-07T07:49:36;19.67;;;8.00;;
42334;SDS011;27986;42.700;24.178;2022-12-07T07:52:02;10.82;;;5.00;;
42334;SDS011;27986;42.700;24.178;2022-12-07T07:54:27;11.18;;;5.40;;
42334;SDS011;27986;42.700;24.178;2022-12-07T07:56:53;9.25;;;5.13;;
42334;SDS011;27986;42.700;24.178;2022-12-07T07:59:18;12.77;;;4.32;;
42334;SDS011;27986;42.700;24.178;2022-12-07T08:01:44;10.07;;;4.75;;
42334;SDS011;27986;42.700;24.178;2022-12-07T08:04:09;10.57;;;4.25;;
42334;SDS011;27986;42.700;24.178;2022-12-07T08:06:35;10.45;;;4.47;;
42334;SDS011;27986;42.700;24.178;2022-12-07T08:09:00;8.23;;;4.05;;
42334;SDS011;27986;42.700;24.178;2022-12-07T08:11:26;6.60;;;2.95;;
42334;SDS011;27986;42.700;24.178;2022-12-07T08:13:51;9.68;;;3.80;;
42334;SDS011;27986;42.700;24.178;2022-12-07T08:16:17;7.03;;;2.92;;
42334;SDS011;27986;42.700;24.178;2022-12-07T08:18:43;13.18;;;4.45;;
42334;SDS011;27986;42.700;24.178;2022-12-07T08:21:12;10.75;;;5.05;;
42334;SDS011;27986;42.700;24.178;2022-12-07T08:23:40;12.90;;;5.27;;
42334;SDS011;27986;42.700;24.178;2022-12-07T08:26:07;12.88;;;4.40;;
42334;SDS011;27986;42.700;24.178;2022-12-07T08:28:34;11.55;;;4.57;;
42334;SDS011;27986;42.700;24.178;2022-12-07T08:31:06;22.38;;;9.52;;
42334;SDS011;27986;42.700;24.178;2022-12-07T08:33:39;11.70;;;5.25;;
42334;SDS011;27986;42.700;24.178;2022-12-07T08:36:10;17.75;;;4.22;;
42334;SDS011;27986;42.700;24.178;2022-12-07T08:38:37;8.80;;;3.92;;
42334;SDS011;27986;42.700;24.178;2022-12-07T08:41:05;9.18;;;3.75;;
42334;SDS011;27986;42.700;24.178;2022-12-07T08:43:31;10.68;;;4.28;;
42334;SDS011;27986;42.700;24.178;2022-12-07T08:46:02;10.50;;;3.17;;
42334;SDS011;27986;42.700;24.178;2022-12-07T08:48:31;7.80;;;3.22;;
42334;SDS011;27986;42.700;24.178;2022-12-07T08:51:00;10.90;;;4.07;;
42334;SDS011;27986;42.700;24.178;2022-12-07T08:53:27;10.00;;;3.90;;
42334;SDS011;27986;42.700;24.178;2022-12-07T08:55:53;9.80;;;3.65;;
42334;SDS011;27986;42.700;24.178;2022-12-07T08:58:19;27.95;;;5.85;;
42334;SDS011;27986;42.700;24.178;2022-12-07T09:00:44;8.90;;;4.40;;
42334;SDS011;27986;42.700;24.178;2022-12-07T09:03:10;8.93;;;4.60;;
42334;SDS011;27986;42.700;24.178;2022-12-07T09:05:35;10.98;;;4.72;;
42334;SDS011;27986;42.700;24.178;2022-12-07T09:08:01;8.07;;;3.80;;
42334;SDS011;27986;42.700;24.178;2022-12-07T09:10:27;9.02;;;4.07;;
42334;SDS011;27986;42.700;24.178;2022-12-07T09:12:53;11.05;;;4.13;;
42334;SDS011;27986;42.700;24.178;2022-12-07T09:15:19;10.77;;;4.45;;
42334;SDS011;27986;42.700;24.178;2022-12-07T09:17:44;14.80;;;4.38;;
42334;SDS011;27986;42.700;24.178;2022-12-07T09:20:10;9.60;;;4.25;;
42334;SDS011;27986;42.700;24.178;2022-12-07T09:22:35;5.70;;;2.67;;
42334;SDS011;27986;42.700;24.178;2022-12-07T09:25:02;8.93;;;4.20;;
42334;SDS011;27986;42.700;24.178;2022-12-07T09:27:28;23.42;;;8.60;;
42334;SDS011;27986;42.700;24.178;2022-12-07T09:29:54;15.77;;;5.38;;
42334;SDS011;27986;42.700;24.178;2022-12-07T09:32:20;17.92;;;4.93;;
42334;SDS011;27986;42.700;24.178;2022-12-07T09:34:46;15.48;;;7.35;;
42334;SDS011;27986;42.700;24.178;2022-12-07T09:37:12;14.35;;;6.10;;
42334;SDS011;27986;42.700;24.178;2022-12-07T09:39:37;19.00;;;6.13;;
42334;SDS011;27986;42.700;24.178;2022-12-07T09:42:04;13.27;;;5.93;;
42334;SDS011;27986;42.700;24.178;2022-12-07T09:44:31;13.65;;;6.50;;
42334;SDS011;27986;42.700;24.178;2022-12-07T09:46:58;14.25;;;4.30;;
42334;SDS011;27986;42.700;24.178;2022-12-07T09:49:24;11.18;;;4.20;;
42334;SDS011;27986;42.700;24.178;2022-12-07T09:52:16;10.63;;;4.00;;
42334;SDS011;27986;42.700;24.178;2022-12-07T09:54:50;15.00;;;7.22;;
42334;SDS011;27986;42.700;24.178;2022-12-07T09:57:16;17.05;;;6.30;;
42334;SDS011;27986;42.700;24.178;2022-12-07T09:59:42;14.40;;;5.97;;
42334;SDS011;27986;42.700;24.178;2022-12-07T10:05:10;11.88;;;5.68;;
42334;SDS011;27986;42.700;24.178;2022-12-07T10:07:39;19.42;;;6.38;;
42334;SDS011;27986;42.700;24.178;2022-12-07T10:10:15;13.93;;;5.97;;
42334;SDS011;27986;42.700;24.178;2022-12-07T10:15:38;18.77;;;6.15;;
42334;SDS011;27986;42.700;24.178;2022-12-07T10:18:27;21.88;;;7.53;;
42334;SDS011;27986;42.700;24.178;2022-12-07T10:21:26;16.30;;;5.82;;
42334;SDS011;27986;42.700;24.178;2022-12-07T10:24:01;11.98;;;4.47;;
42334;SDS011;27986;42.700;24.178;2022-12-07T10:26:36;9.80;;;4.32;;
42334;SDS011;27986;42.700;24.178;2022-12-07T10:31:42;13.77;;;5.88;;
42334;SDS011;27986;42.700;24.178;2022-12-07T10:42:23;10.73;;;4.63;;
42334;SDS011;27986;42.700;24.178;2022-12-07T10:44:50;7.57;;;3.67;;
42334;SDS011;27986;42.700;24.178;2022-12-07T10:47:42;9.07;;;4.05;;
42334;SDS011;27986;42.700;24.178;2022-12-07T11:04:13;12.65;;;5.28;;
42334;SDS011;27986;42.700;24.178;2022-12-07T11:07:48;13.95;;;4.78;;
42334;SDS011;27986;42.700;24.178;2022-12-07T11:10:16;12.95;;;3.40;;
42334;SDS011;27986;42.700;24.178;2022-12-07T11:12:52;8.57;;;2.97;;
42334;SDS011;27986;42.700;24.178;2022-12-07T11:18:22;8.18;;;4.22;;
42334;SDS011;27986;42.700;24.178;2022-12-07T11:32:02;11.70;;;3.28;;
42334;SDS011;27986;42.700;24.178;2022-12-07T11:37:28;11.68;;;3.17;;
42334;SDS011;27986;42.700;24.178;2022-12-07T11:40:03;7.70;;;3.15;;
42334;SDS011;27986;42.700;24.178;2022-12-07T11:42:42;7.97;;;3.33;;
42334;SDS011;27986;42.700;24.178;2022-12-07T11:45:32;6.63;;;2.90;;
42334;SDS011;27986;42.700;24.178;2022-12-07T11:48:03;5.22;;;2.35;;
42334;SDS011;27986;42.700;24.178;2022-12-07T11:53:33;9.85;;;4.10;;
42334;SDS011;27986;42.700;24.178;2022-12-07T11:56:14;9.30;;;3.92;;
42334;SDS011;27986;42.700;24.178;2022-12-07T12:03:45;6.95;;;2.60;;
42334;SDS011;27986;42.700;24.178;2022-12-07T12:06:12;18.35;;;5.60;;
42334;SDS011;27986;42.700;24.178;2022-12-07T12:08:43;20.15;;;9.27;;
42334;SDS011;27986;42.700;24.178;2022-12-07T12:14:14;25.95;;;10.85;;
42334;SDS011;27986;42.700;24.178;2022-12-07T12:19:57;9.05;;;3.13;;
42334;SDS011;27986;42.700;24.178;2022-12-07T12:22:44;7.72;;;3.20;;
42334;SDS011;27986;42.700;24.178;2022-12-07T12:28:01;7.75;;;3.28;;
42334;SDS011;27986;42.700;24.178;2022-12-07T12:30:31;9.00;;;3.85;;
42334;SDS011;27986;42.700;24.178;2022-12-07T12:33:20;13.23;;;5.40;;
42334;SDS011;27986;42.700;24.178;2022-12-07T12:46:54;11.65;;;3.28;;
42334;SDS011;27986;42.700;24.178;2022-12-07T12:51:48;16.45;;;6.40;;
42334;SDS011;27986;42.700;24.178;2022-12-07T12:59:39;35.08;;;8.18;;
42334;SDS011;27986;42.700;24.178;2022-12-07T13:04:59;49.42;;;17.83;;
42334;SDS011;27986;42.700;24.178;2022-12-07T13:23:38;63.63;;;21.13;;
42334;SDS011;27986;42.700;24.178;2022-12-07T13:26:20;17.20;;;6.18;;
42334;SDS011;27986;42.700;24.178;2022-12-07T13:28:50;5.88;;;2.88;;
42334;SDS011;27986;42.700;24.178;2022-12-07T13:36:55;8.90;;;4.30;;
42334;SDS011;27986;42.700;24.178;2022-12-07T13:39:22;10.38;;;3.65;;
42334;SDS011;27986;42.700;24.178;2022-12-07T13:41:54;9.40;;;3.72;;
42334;SDS011;27986;42.700;24.178;2022-12-07T13:44:22;8.32;;;3.63;;
42334;SDS011;27986;42.700;24.178;2022-12-07T13:49:24;19.98;;;8.65;;
42334;SDS011;27986;42.700;24.178;2022-12-07T13:51:52;25.08;;;9.23;;
42334;SDS011;27986;42.700;24.178;2022-12-07T13:54:20;20.40;;;9.45;;
42334;SDS011;27986;42.700;24.178;2022-12-07T13:56:52;16.40;;;7.93;;
42334;SDS011;27986;42.700;24.178;2022-12-07T13:59:24;18.42;;;7.45;;
42334;SDS011;27986;42.700;24.178;2022-12-07T14:01:52;26.33;;;10.90;;
42334;SDS011;27986;42.700;24.178;2022-12-07T14:06:55;32.05;;;9.32;;
42334;SDS011;27986;42.700;24.178;2022-12-07T14:09:22;39.08;;;13.48;;
42334;SDS011;27986;42.700;24.178;2022-12-07T14:11:52;26.42;;;10.35;;
42334;SDS011;27986;42.700;24.178;2022-12-07T14:14:26;15.98;;;7.55;;
42334;SDS011;27986;42.700;24.178;2022-12-07T14:17:08;26.90;;;9.98;;
42334;SDS011;27986;42.700;24.178;2022-12-07T14:22:27;15.05;;;6.45;;
42334;SDS011;27986;42.700;24.178;2022-12-07T14:25:00;20.30;;;8.63;;
42334;SDS011;27986;42.700;24.178;2022-12-07T14:27:37;9.30;;;4.82;;
42334;SDS011;27986;42.700;24.178;2022-12-07T14:30:04;12.82;;;5.90;;
42334;SDS011;27986;42.700;24.178;2022-12-07T14:32:30;13.27;;;5.00;;
42334;SDS011;27986;42.700;24.178;2022-12-07T14:37:23;20.58;;;6.40;;
42334;SDS011;27986;42.700;24.178;2022-12-07T14:39:49;17.42;;;5.95;;
42334;SDS011;27986;42.700;24.178;2022-12-07T14:42:14;39.55;;;14.80;;
42334;SDS011;27986;42.700;24.178;2022-12-07T14:44:40;35.63;;;14.32;;
42334;SDS011;27986;42.700;24.178;2022-12-07T14:47:08;20.70;;;8.70;;
42334;SDS011;27986;42.700;24.178;2022-12-07T14:49:37;22.23;;;8.90;;
42334;SDS011;27986;42.700;24.178;2022-12-07T14:52:02;22.52;;;7.35;;
42334;SDS011;27986;42.700;24.178;2022-12-07T14:54:29;18.35;;;8.20;;
42334;SDS011;27986;42.700;24.178;2022-12-07T14:56:57;26.95;;;10.82;;
42334;SDS011;27986;42.700;24.178;2022-12-07T14:59:23;33.28;;;14.82;;
42334;SDS011;27986;42.700;24.178;2022-12-07T15:01:48;36.88;;;16.38;;
42334;SDS011;27986;42.700;24.178;2022-12-07T15:04:14;31.00;;;13.65;;
42334;SDS011;27986;42.700;24.178;2022-12-07T15:06:39;26.05;;;11.93;;
42334;SDS011;27986;42.700;24.178;2022-12-07T15:09:05;27.70;;;11.70;;
42334;SDS011;27986;42.700;24.178;2022-12-07T15:11:30;22.90;;;10.68;;
42334;SDS011;27986;42.700;24.178;2022-12-07T15:13:56;30.30;;;12.10;;
42334;SDS011;27986;42.700;24.178;2022-12-07T15:16:35;27.95;;;14.70;;
42334;SDS011;27986;42.700;24.178;2022-12-07T15:19:02;48.85;;;21.30;;
42334;SDS011;27986;42.700;24.178;2022-12-07T15:21:27;33.78;;;15.20;;
42334;SDS011;27986;42.700;24.178;2022-12-07T15:23:53;31.40;;;15.05;;
42334;SDS011;27986;42.700;24.178;2022-12-07T15:26:18;23.13;;;11.43;;
42334;SDS011;27986;42.700;24.178;2022-12-07T15:28:44;47.00;;;14.55;;
42334;SDS011;27986;42.700;24.178;2022-12-07T15:31:15;23.08;;;11.15;;
42334;SDS011;27986;42.700;24.178;2022-12-07T15:33:42;20.65;;;10.30;;
42334;SDS011;27986;42.700;24.178;2022-12-07T15:36:09;27.17;;;11.10;;
42334;SDS011;27986;42.700;24.178;2022-12-07T15:38:58;24.10;;;9.88;;
42334;SDS011;27986;42.700;24.178;2022-12-07T15:41:24;25.23;;;10.18;;
42334;SDS011;27986;42.700;24.178;2022-12-07T15:43:50;18.58;;;7.18;;
42334;SDS011;27986;42.700;24.178;2022-12-07T15:46:38;18.98;;;8.27;;
42334;SDS011;27986;42.700;24.178;2022-12-07T15:49:09;24.05;;;9.57;;
42334;SDS011;27986;42.700;24.178;2022-12-07T15:51:39;20.90;;;10.90;;
42334;SDS011;27986;42.700;24.178;2022-12-07T15:54:06;29.98;;;11.63;;
42334;SDS011;27986;42.700;24.178;2022-12-07T15:56:32;38.38;;;16.85;;
42334;SDS011;27986;42.700;24.178;2022-12-07T15:58:58;42.55;;;17.05;;
42334;SDS011;27986;42.700;24.178;2022-12-07T16:01:23;43.10;;;17.55;;
42334;SDS011;27986;42.700;24.178;2022-12-07T16:03:49;43.97;;;17.25;;
42334;SDS011;27986;42.700;24.178;2022-12-07T16:06:17;42.72;;;16.33;;
42334;SDS011;27986;42.700;24.178;2022-12-07T16:08:43;39.15;;;18.38;;
42334;SDS011;27986;42.700;24.178;2022-12-07T16:11:11;70.20;;;25.17;;
42334;SDS011;27986;42.700;24.178;2022-12-07T16:13:37;46.50;;;19.63;;
42334;SDS011;27986;42.700;24.178;2022-12-07T16:16:07;32.97;;;17.05;;
42334;SDS011;27986;42.700;24.178;2022-12-07T16:18:36;35.35;;;16.33;;
42334;SDS011;27986;42.700;24.178;2022-12-07T16:21:02;44.58;;;18.33;;
42334;SDS011;27986;42.700;24.178;2022-12-07T16:23:28;38.53;;;14.85;;
42334;SDS011;27986;42.700;24.178;2022-12-07T16:25:54;35.00;;;10.18;;
42334;SDS011;27986;42.700;24.178;2022-12-07T16:28:19;28.70;;;11.05;;
42334;SDS011;27986;42.700;24.178;2022-12-07T16:30:45;26.60;;;11.82;;
42334;SDS011;27986;42.700;24.178;2022-12-07T16:33:10;31.08;;;12.80;;
42334;SDS011;27986;42.700;24.178;2022-12-07T16:35:39;52.97;;;23.58;;
42334;SDS011;27986;42.700;24.178;2022-12-07T16:38:08;56.63;;;24.48;;
42334;SDS011;27986;42.700;24.178;2022-12-07T16:40:34;69.80;;;26.25;;
42334;SDS011;27986;42.700;24.178;2022-12-07T16:42:59;65.78;;;26.77;;
42334;SDS011;27986;42.700;24.178;2022-12-07T16:45:25;75.38;;;29.20;;
42334;SDS011;27986;42.700;24.178;2022-12-07T16:47:50;72.82;;;27.23;;
42334;SDS011;27986;42.700;24.178;2022-12-07T16:50:16;65.53;;;25.90;;
42334;SDS011;27986;42.700;24.178;2022-12-07T16:52:41;41.83;;;16.98;;
42334;SDS011;27986;42.700;24.178;2022-12-07T16:55:07;28.05;;;12.52;;
42334;SDS011;27986;42.700;24.178;2022-12-07T16:57:32;27.50;;;11.57;;
42334;SDS011;27986;42.700;24.178;2022-12-07T16:59:58;40.53;;;11.52;;
42334;SDS011;27986;42.700;24.178;2022-12-07T17:02:23;33.25;;;14.38;;
42334;SDS011;27986;42.700;24.178;2022-12-07T17:04:49;51.58;;;17.70;;
42334;SDS011;27986;42.700;24.178;2022-12-07T17:07:15;36.10;;;14.35;;
42334;SDS011;27986;42.700;24.178;2022-12-07T17:09:41;34.08;;;13.50;;